createdAt,value
2017-10-31T00:01:33.336Z,95.40
2017-10-31T00:04:00.991Z,95.30
2017-10-31T00:06:28.589Z,95.30
2017-10-31T00:08:56.395Z,95.20
2017-10-31T00:11:23.961Z,95.20
2017-10-31T00:13:51.610Z,95.20
2017-10-31T00:16:19.275Z,95.30
2017-10-31T00:18:46.966Z,95.30
2017-10-31T00:21:14.600Z,95.30
2017-10-31T00:23:42.371Z,95.30
2017-10-31T00:26:09.994Z,95.40
2017-10-31T00:28:37.608Z,95.40
2017-10-31T00:31:05.556Z,95.50
2017-10-31T00:33:33.133Z,95.40
2017-10-31T00:36:00.793Z,95.50
2017-10-31T00:38:28.412Z,95.50
2017-10-31T00:40:56.073Z,95.50
2017-10-31T00:43:24.023Z,95.50
2017-10-31T00:45:51.655Z,95.50
2017-10-31T00:48:20.117Z,95.50
2017-10-31T00:50:47.769Z,95.20
2017-10-31T00:53:15.390Z,95.10
2017-10-31T00:55:43.922Z,95.20
2017-10-31T00:58:11.596Z,95.20
2017-10-31T01:00:39.246Z,95.30
2017-10-31T01:03:06.847Z,95.40
2017-10-31T01:05:34.502Z,95.60
2017-10-31T01:08:02.149Z,95.70
2017-10-31T01:10:29.794Z,95.70
2017-10-31T01:12:57.481Z,95.80
2017-10-31T01:15:25.121Z,95.70
2017-10-31T01:17:52.949Z,95.80
2017-10-31T01:20:21.310Z,96.00
2017-10-31T01:22:48.930Z,96.00
2017-10-31T01:25:16.535Z,96.00
2017-10-31T01:27:44.138Z,96.20
2017-10-31T01:30:11.778Z,96.30
2017-10-31T01:32:40.171Z,96.10
2017-10-31T01:35:07.829Z,96.10
2017-10-31T01:37:35.493Z,96.00
2017-10-31T01:40:03.159Z,96.10
2017-10-31T01:42:30.769Z,96.00
2017-10-31T01:44:58.388Z,95.90
2017-10-31T01:47:25.983Z,95.90
2017-10-31T01:49:53.582Z,95.80
2017-10-31T01:52:21.233Z,95.50
2017-10-31T01:54:49.716Z,95.50
2017-10-31T01:57:18.161Z,95.20
2017-10-31T01:59:45.799Z,95.20
2017-10-31T02:02:13.489Z,95.20
2017-10-31T02:04:41.217Z,95.30
2017-10-31T02:07:08.847Z,95.50
2017-10-31T02:09:37.306Z,95.80
2017-10-31T02:12:05.018Z,95.80
2017-10-31T02:14:32.679Z,95.80
2017-10-31T02:17:00.337Z,95.80
2017-10-31T02:19:27.949Z,96.00
2017-10-31T02:21:55.545Z,96.00
2017-10-31T02:24:23.172Z,96.20
2017-10-31T02:26:50.838Z,96.20
2017-10-31T02:29:18.457Z,96.40
2017-10-31T02:31:46.085Z,96.60
2017-10-31T02:34:14.474Z,96.60
2017-10-31T02:36:42.165Z,96.60
2017-10-31T02:39:19.650Z,96.60
2017-10-31T02:41:47.284Z,96.70
2017-10-31T02:44:14.861Z,96.60
2017-10-31T02:46:42.488Z,96.60
2017-10-31T02:49:10.891Z,96.70
2017-10-31T02:51:38.604Z,96.70
2017-10-31T02:54:07.097Z,96.70
2017-10-31T02:56:34.736Z,96.50
2017-10-31T02:59:02.363Z,96.60
2017-10-31T03:01:30.023Z,96.50
2017-10-31T03:03:57.662Z,96.60
2017-10-31T03:06:26.068Z,96.70
2017-10-31T03:08:53.769Z,96.70
2017-10-31T03:11:21.484Z,96.60
2017-10-31T03:13:49.895Z,96.80
2017-10-31T03:16:18.429Z,96.80
2017-10-31T03:18:46.193Z,96.60
2017-10-31T03:21:14.726Z,96.40
2017-10-31T03:23:42.384Z,96.50
2017-10-31T03:26:10.050Z,96.60
2017-10-31T03:28:37.658Z,96.60
2017-10-31T03:31:06.018Z,96.40
2017-10-31T03:33:33.840Z,96.60
2017-10-31T03:36:01.481Z,96.60
2017-10-31T03:38:29.908Z,96.50
2017-10-31T03:40:57.573Z,96.50
2017-10-31T03:43:25.308Z,96.70
2017-10-31T03:45:52.940Z,96.70
2017-10-31T03:48:21.350Z,96.80
2017-10-31T03:50:49.012Z,96.90
2017-10-31T03:53:16.646Z,97.00
2017-10-31T03:55:44.984Z,97.10
2017-10-31T03:58:12.680Z,97.10
2017-10-31T04:00:41.868Z,97.20
2017-10-31T04:03:09.516Z,97.20
2017-10-31T04:05:37.933Z,97.20
2017-10-31T04:08:06.290Z,97.20
2017-10-31T04:10:34.040Z,97.20
2017-10-31T04:13:02.452Z,97.40
2017-10-31T04:15:30.845Z,97.40
2017-10-31T04:17:58.488Z,97.40
2017-10-31T04:20:26.898Z,97.70
2017-10-31T04:22:54.537Z,97.70
2017-10-31T04:25:22.910Z,98.00
2017-10-31T04:27:52.236Z,98.10
2017-10-31T04:30:19.863Z,98.00
2017-10-31T04:32:48.206Z,98.30
2017-10-31T04:35:15.829Z,98.00
2017-10-31T04:37:43.479Z,98.00
2017-10-31T04:40:11.061Z,98.00
2017-10-31T04:42:38.700Z,98.10
2017-10-31T04:45:07.163Z,97.90
2017-10-31T04:47:35.639Z,97.70
2017-10-31T04:50:03.279Z,97.70
2017-10-31T04:52:30.953Z,97.60
2017-10-31T04:54:58.625Z,97.50
2017-10-31T04:57:26.265Z,97.40
2017-10-31T04:59:53.996Z,97.40
2017-10-31T05:02:21.587Z,97.30
2017-10-31T05:04:49.150Z,97.20
2017-10-31T05:07:16.810Z,97.10
2017-10-31T05:09:44.389Z,97.20
2017-10-31T05:12:12.002Z,97.10
2017-10-31T05:14:39.917Z,97.20
2017-10-31T05:17:08.292Z,97.20
2017-10-31T05:19:35.941Z,97.20
2017-10-31T05:22:03.573Z,97.30
2017-10-31T05:24:31.188Z,97.40
2017-10-31T05:26:59.538Z,97.40
2017-10-31T05:29:27.913Z,97.40
2017-10-31T05:31:55.879Z,97.40
2017-10-31T05:34:23.490Z,97.60
2017-10-31T05:36:51.867Z,98.10
2017-10-31T05:39:19.495Z,98.10
2017-10-31T05:41:47.887Z,98.10
2017-10-31T05:44:15.514Z,98.10
2017-10-31T05:46:43.126Z,98.00
2017-10-31T05:49:10.724Z,97.90
2017-10-31T05:51:38.384Z,97.90
2017-10-31T05:54:05.994Z,97.80
2017-10-31T05:56:33.679Z,97.50
2017-10-31T05:59:01.360Z,97.40
2017-10-31T06:01:29.048Z,97.40
2017-10-31T06:03:57.424Z,97.20
2017-10-31T06:06:25.093Z,97.20
2017-10-31T06:08:52.670Z,97.20
2017-10-31T06:11:21.019Z,97.30
2017-10-31T06:13:48.662Z,97.30
2017-10-31T06:16:16.290Z,97.40
2017-10-31T06:18:43.917Z,97.50
2017-10-31T06:21:12.719Z,97.50
2017-10-31T06:23:45.913Z,97.50
2017-10-31T06:26:19.888Z,97.60
2017-10-31T06:28:53.233Z,97.60
2017-10-31T06:31:27.071Z,97.70
2017-10-31T06:33:54.696Z,97.80
2017-10-31T06:36:22.394Z,97.70
2017-10-31T06:38:50.047Z,97.60
2017-10-31T06:41:17.714Z,97.60
2017-10-31T06:43:45.377Z,97.70
2017-10-31T06:46:13.031Z,97.70
2017-10-31T06:48:40.680Z,97.90
2017-10-31T06:51:09.054Z,97.90
2017-10-31T06:53:36.662Z,97.90
2017-10-31T06:56:04.284Z,97.90
2017-10-31T06:58:31.978Z,97.90
2017-10-31T07:00:59.627Z,97.80
2017-10-31T07:03:27.336Z,98.10
2017-10-31T07:05:55.691Z,97.90
2017-10-31T07:08:23.332Z,97.90
2017-10-31T07:10:50.942Z,97.90
2017-10-31T07:13:18.558Z,97.60
2017-10-31T07:15:46.179Z,97.70
2017-10-31T07:18:13.770Z,97.50
2017-10-31T07:20:41.525Z,97.50
2017-10-31T07:23:09.170Z,97.50
2017-10-31T07:25:36.774Z,97.30
2017-10-31T07:28:04.375Z,97.10
2017-10-31T07:30:32.771Z,97.10
2017-10-31T07:33:00.418Z,97.00
2017-10-31T07:35:28.049Z,96.80
2017-10-31T07:37:56.496Z,96.60
2017-10-31T07:40:24.121Z,96.60
2017-10-31T07:42:51.714Z,96.60
2017-10-31T07:45:19.339Z,96.60
2017-10-31T07:47:46.962Z,96.70
2017-10-31T07:50:14.581Z,96.70
2017-10-31T07:52:42.236Z,96.70
2017-10-31T07:55:09.839Z,96.50
2017-10-31T07:57:37.453Z,96.20
2017-10-31T08:00:05.056Z,96.30
2017-10-31T08:02:32.697Z,96.00
2017-10-31T08:05:00.406Z,96.00
2017-10-31T08:07:27.981Z,95.90
2017-10-31T08:09:56.321Z,96.60
2017-10-31T08:12:24.037Z,96.50
2017-10-31T08:14:51.703Z,96.60
2017-10-31T08:17:19.391Z,96.70
2017-10-31T08:19:47.258Z,96.50
2017-10-31T08:22:14.860Z,96.30
2017-10-31T08:24:42.491Z,96.30
2017-10-31T08:27:10.136Z,96.20
2017-10-31T08:29:37.873Z,96.20
2017-10-31T08:32:05.520Z,96.00
2017-10-31T08:34:33.183Z,95.60
2017-10-31T08:37:00.869Z,95.50
2017-10-31T08:39:28.515Z,95.20
2017-10-31T08:41:56.894Z,95.20
2017-10-31T08:44:24.522Z,95.20
2017-10-31T08:46:52.118Z,95.00
2017-10-31T08:49:19.737Z,95.00
2017-10-31T08:51:47.339Z,95.10
2017-10-31T08:54:14.928Z,94.90
2017-10-31T08:56:43.338Z,95.40
2017-10-31T08:59:10.991Z,95.40
2017-10-31T09:01:38.692Z,95.50
2017-10-31T09:04:07.078Z,95.30
2017-10-31T09:06:35.421Z,95.40
2017-10-31T09:09:03.058Z,95.40
2017-10-31T09:11:31.435Z,95.30
2017-10-31T09:13:59.011Z,95.30
2017-10-31T09:16:27.396Z,95.30
2017-10-31T09:18:55.024Z,95.30
2017-10-31T09:21:24.636Z,95.50
2017-10-31T09:23:52.990Z,96.00
2017-10-31T09:26:22.168Z,96.00
2017-10-31T09:28:49.854Z,95.90
2017-10-31T09:31:17.460Z,95.70
2017-10-31T09:33:45.828Z,95.70
2017-10-31T09:36:15.207Z,95.40
2017-10-31T09:38:42.890Z,95.40
2017-10-31T09:41:11.328Z,95.20
2017-10-31T09:43:38.941Z,95.20
2017-10-31T09:46:07.357Z,94.80
2017-10-31T09:48:34.940Z,94.70
2017-10-31T09:51:02.614Z,94.10
2017-10-31T09:53:31.006Z,94.20
2017-10-31T09:55:58.623Z,93.80
2017-10-31T09:58:26.335Z,94.00
2017-10-31T10:00:54.085Z,94.00
2017-10-31T10:03:22.494Z,93.80
2017-10-31T10:05:50.085Z,93.80
2017-10-31T10:08:17.662Z,93.40
2017-10-31T10:10:45.341Z,93.40
2017-10-31T10:13:12.961Z,93.30
2017-10-31T10:15:40.605Z,93.30
2017-10-31T10:18:08.312Z,93.20
2017-10-31T10:20:36.626Z,93.10
2017-10-31T10:23:05.159Z,93.10
2017-10-31T10:25:32.732Z,93.00
2017-10-31T10:28:00.379Z,93.30
2017-10-31T10:30:27.975Z,93.30
2017-10-31T10:32:56.432Z,93.70
2017-10-31T10:35:24.038Z,93.60
2017-10-31T10:37:51.660Z,93.40
2017-10-31T10:40:19.303Z,93.30
2017-10-31T10:42:46.947Z,93.50
2017-10-31T10:45:14.659Z,94.00
2017-10-31T10:47:42.296Z,94.10
2017-10-31T10:50:09.909Z,94.40
2017-10-31T10:52:37.911Z,94.50
2017-10-31T10:55:05.555Z,94.50
2017-10-31T10:57:33.267Z,94.50
2017-10-31T11:00:01.026Z,94.70
2017-10-31T11:02:28.692Z,94.80
2017-10-31T11:04:56.345Z,94.40
2017-10-31T11:07:24.075Z,94.40
2017-10-31T11:09:51.700Z,94.50
2017-10-31T11:12:20.063Z,94.20
2017-10-31T11:14:47.669Z,94.20
2017-10-31T11:17:15.351Z,94.20
2017-10-31T11:19:42.917Z,94.10
2017-10-31T11:22:10.542Z,94.10
2017-10-31T11:24:38.120Z,93.90
2017-10-31T11:27:05.736Z,93.80
2017-10-31T11:29:33.494Z,94.10
2017-10-31T11:32:01.512Z,94.30
2017-10-31T11:34:29.842Z,94.00
2017-10-31T11:36:57.636Z,93.40
2017-10-31T11:39:25.282Z,93.30
2017-10-31T11:41:52.980Z,92.90
2017-10-31T11:44:20.875Z,92.60
2017-10-31T11:46:49.276Z,92.80
2017-10-31T11:49:18.702Z,92.30
2017-10-31T11:51:46.824Z,92.30
2017-10-31T11:54:14.881Z,93.10
2017-10-31T11:56:43.078Z,92.30
2017-10-31T11:59:10.808Z,92.20
2017-10-31T12:01:39.177Z,92.30
2017-10-31T12:04:06.785Z,92.60
2017-10-31T12:06:34.492Z,92.00
2017-10-31T12:09:02.090Z,92.10
2017-10-31T12:11:29.700Z,92.10
2017-10-31T12:13:58.123Z,92.10
2017-10-31T12:16:25.727Z,92.00
2017-10-31T12:18:53.313Z,91.90
2017-10-31T12:21:20.913Z,91.50
2017-10-31T12:23:48.714Z,91.10
2017-10-31T12:26:16.386Z,90.70
2017-10-31T12:28:44.059Z,90.80
2017-10-31T12:31:11.949Z,90.50
2017-10-31T12:33:39.541Z,90.30
2017-10-31T12:36:07.770Z,89.80
2017-10-31T12:38:35.459Z,90.20
2017-10-31T12:41:03.075Z,90.00
2017-10-31T12:43:30.929Z,90.50
2017-10-31T12:45:58.542Z,90.60
2017-10-31T12:48:26.972Z,90.10
2017-10-31T12:50:54.644Z,90.10
2017-10-31T12:53:22.296Z,90.20
2017-10-31T12:55:49.936Z,90.60
2017-10-31T12:58:17.617Z,90.70
2017-10-31T13:00:45.317Z,90.60
2017-10-31T13:03:12.943Z,90.90
2017-10-31T13:05:40.765Z,90.90
2017-10-31T13:08:08.439Z,90.80
2017-10-31T13:10:36.908Z,90.60
2017-10-31T13:13:04.568Z,90.60
2017-10-31T13:15:32.974Z,91.20
2017-10-31T13:18:00.561Z,91.20
2017-10-31T13:20:28.208Z,90.40
2017-10-31T13:22:55.888Z,90.50
2017-10-31T13:25:23.535Z,90.40
2017-10-31T13:27:51.521Z,90.20
2017-10-31T13:30:19.676Z,90.00
2017-10-31T13:32:47.805Z,89.10
2017-10-31T13:35:16.579Z,89.30
2017-10-31T13:37:44.803Z,89.00
2017-10-31T13:40:12.975Z,88.60
2017-10-31T13:42:42.039Z,88.20
2017-10-31T13:45:10.518Z,89.40
2017-10-31T13:47:38.689Z,89.40
2017-10-31T13:50:06.913Z,88.90
2017-10-31T13:52:35.491Z,88.00
2017-10-31T13:55:03.128Z,87.70
2017-10-31T13:57:30.739Z,87.40
2017-10-31T13:59:58.465Z,88.20
2017-10-31T14:02:26.633Z,88.20
2017-10-31T14:04:54.784Z,88.20
2017-10-31T14:07:22.725Z,88.80
2017-10-31T14:09:50.773Z,88.70
2017-10-31T14:12:18.903Z,88.90
2017-10-31T14:14:46.566Z,88.80
2017-10-31T14:17:15.017Z,88.90
2017-10-31T14:19:44.041Z,88.80
2017-10-31T14:22:11.677Z,89.20
2017-10-31T14:24:39.344Z,89.80
2017-10-31T14:27:07.000Z,89.90
2017-10-31T14:29:35.582Z,89.20
2017-10-31T14:32:03.231Z,89.20
2017-10-31T14:34:31.044Z,89.10
2017-10-31T14:36:59.506Z,89.60
2017-10-31T14:39:28.440Z,89.60
2017-10-31T14:41:56.462Z,89.50
2017-10-31T14:44:24.114Z,89.90
2017-10-31T14:46:51.912Z,90.10
2017-10-31T14:49:19.663Z,90.10
2017-10-31T14:51:48.124Z,90.10
2017-10-31T14:54:16.691Z,90.10
2017-10-31T14:56:44.341Z,90.20
2017-10-31T14:59:12.051Z,90.40
2017-10-31T15:01:39.785Z,90.90
2017-10-31T15:04:07.529Z,91.10
2017-10-31T15:06:35.222Z,90.80
2017-10-31T15:09:02.850Z,91.20
2017-10-31T15:11:30.563Z,91.30
2017-10-31T15:13:58.309Z,91.10
2017-10-31T15:16:26.073Z,91.10
2017-10-31T15:18:53.704Z,91.10
2017-10-31T15:21:21.377Z,91.10
2017-10-31T15:23:49.113Z,91.10
2017-10-31T15:26:17.536Z,91.40
2017-10-31T15:28:45.226Z,91.40
2017-10-31T15:31:13.667Z,91.60
2017-10-31T15:33:41.323Z,91.60
2017-10-31T15:36:09.444Z,91.50
2017-10-31T15:38:37.094Z,91.30
2017-10-31T15:41:04.739Z,91.60
2017-10-31T15:43:32.385Z,91.50
2017-10-31T15:46:00.247Z,91.80
2017-10-31T15:48:27.922Z,91.80
2017-10-31T15:50:55.542Z,92.10
2017-10-31T15:53:23.204Z,92.20
2017-10-31T15:55:50.874Z,92.60
2017-10-31T15:58:18.537Z,92.40
2017-10-31T16:00:46.225Z,92.60
2017-10-31T16:03:13.855Z,92.80
2017-10-31T16:05:41.508Z,93.00
2017-10-31T16:08:09.192Z,93.00
2017-10-31T16:10:36.842Z,93.10
2017-10-31T16:13:04.528Z,93.10
2017-10-31T16:15:33.005Z,93.30
2017-10-31T16:18:00.687Z,93.30
2017-10-31T16:20:29.092Z,93.60
2017-10-31T16:22:56.770Z,93.60
2017-10-31T16:25:24.960Z,93.40
2017-10-31T16:27:52.644Z,93.60
2017-10-31T16:30:20.330Z,93.90
2017-10-31T16:32:48.726Z,94.20
2017-10-31T16:35:16.463Z,94.20
2017-10-31T16:37:45.020Z,94.80
2017-10-31T16:40:12.713Z,94.40
2017-10-31T16:42:41.158Z,94.00
2017-10-31T16:45:08.905Z,94.00
2017-10-31T16:47:36.584Z,94.60
2017-10-31T16:50:04.274Z,94.80
2017-10-31T16:52:31.931Z,94.60
2017-10-31T16:54:59.614Z,94.90
2017-10-31T16:57:27.291Z,94.80
2017-10-31T16:59:55.016Z,94.90
2017-10-31T17:02:22.659Z,95.20
2017-10-31T17:04:50.315Z,95.30
2017-10-31T17:07:17.991Z,95.70
2017-10-31T17:09:46.426Z,96.10
2017-10-31T17:12:14.156Z,96.10
2017-10-31T17:14:41.804Z,96.30
2017-10-31T17:17:09.446Z,96.20
2017-10-31T17:19:37.227Z,96.10
2017-10-31T17:22:05.248Z,96.00
2017-10-31T17:24:33.080Z,96.00
2017-10-31T17:27:01.528Z,96.30
2017-10-31T17:29:29.212Z,96.30
2017-10-31T17:31:57.921Z,96.40
2017-10-31T17:34:25.744Z,96.60
2017-10-31T17:36:53.455Z,96.90
2017-10-31T17:39:21.098Z,97.80
2017-10-31T17:41:50.159Z,98.00
2017-10-31T17:44:19.027Z,98.40
2017-10-31T17:46:47.236Z,98.40
2017-10-31T17:49:14.893Z,98.50
2017-10-31T17:51:42.553Z,98.60
2017-10-31T17:54:11.896Z,98.70
2017-10-31T17:56:39.532Z,98.70
2017-10-31T17:59:07.196Z,98.80
2017-10-31T18:01:34.984Z,98.70
2017-10-31T18:04:02.679Z,98.50
2017-10-31T18:06:30.544Z,98.50
2017-10-31T18:08:58.172Z,98.30
2017-10-31T18:11:25.863Z,98.40
2017-10-31T18:13:53.528Z,98.70
2017-10-31T18:16:21.216Z,98.60
2017-10-31T18:18:48.858Z,98.50
2017-10-31T18:21:17.255Z,98.60
2017-10-31T18:23:45.651Z,98.20
2017-10-31T18:26:13.305Z,98.10
2017-10-31T18:28:41.300Z,97.70
2017-10-31T18:31:08.925Z,97.60
2017-10-31T18:33:37.386Z,97.80
2017-10-31T18:36:05.065Z,97.50
2017-10-31T18:38:32.750Z,97.50
2017-10-31T18:41:00.344Z,97.40
2017-10-31T18:43:28.884Z,96.70
2017-10-31T18:45:56.552Z,96.70
2017-10-31T18:48:24.249Z,96.90
2017-10-31T18:50:52.669Z,96.60
2017-10-31T18:53:20.313Z,96.50
2017-10-31T18:55:47.997Z,96.50
2017-10-31T18:58:15.641Z,96.50
2017-10-31T19:00:43.320Z,96.20
2017-10-31T19:03:10.984Z,96.30
2017-10-31T19:05:38.847Z,96.30
2017-10-31T19:08:06.725Z,96.10
2017-10-31T19:10:34.413Z,96.00
2017-10-31T19:13:02.838Z,96.00
2017-10-31T19:15:30.477Z,96.00
2017-10-31T19:17:58.895Z,96.00
2017-10-31T19:20:26.531Z,96.10
2017-10-31T19:22:54.939Z,96.00
2017-10-31T19:25:22.601Z,95.90
2017-10-31T19:27:50.245Z,96.10
2017-10-31T19:30:17.925Z,95.80
2017-10-31T19:32:45.643Z,95.60
2017-10-31T19:35:13.321Z,95.70
2017-10-31T19:37:40.973Z,95.90
2017-10-31T19:40:09.420Z,95.60
2017-10-31T19:42:37.946Z,95.60
2017-10-31T19:45:05.619Z,95.60
2017-10-31T19:47:33.324Z,95.60
2017-10-31T19:50:01.109Z,95.30
2017-10-31T19:52:28.791Z,95.10
2017-10-31T19:54:56.464Z,95.10
2017-10-31T19:57:24.098Z,94.80
2017-10-31T19:59:51.959Z,95.10
2017-10-31T20:02:19.627Z,95.10
2017-10-31T20:04:48.706Z,95.00
2017-10-31T20:07:17.190Z,94.80
2017-10-31T20:09:45.682Z,95.10
2017-10-31T20:12:13.920Z,95.10
2017-10-31T20:14:41.880Z,95.00
2017-10-31T20:17:09.824Z,94.90
2017-10-31T20:19:37.495Z,94.80
2017-10-31T20:22:05.183Z,94.90
2017-10-31T20:24:33.411Z,94.70
2017-10-31T20:27:01.074Z,94.80
2017-10-31T20:29:28.724Z,94.50
2017-10-31T20:31:56.395Z,94.70
2017-10-31T20:34:24.049Z,94.60
2017-10-31T20:36:53.369Z,94.70
2017-10-31T20:39:21.074Z,94.60
2017-10-31T20:41:49.497Z,94.90
2017-10-31T20:44:17.215Z,94.70
2017-10-31T20:46:45.686Z,95.20
2017-10-31T20:49:13.364Z,94.80
2017-10-31T20:51:41.871Z,95.10
2017-10-31T20:54:10.352Z,95.80
2017-10-31T20:56:37.985Z,95.80
2017-10-31T20:59:05.760Z,96.00
2017-10-31T21:01:33.411Z,96.50
2017-10-31T21:04:01.179Z,96.70
2017-10-31T21:06:28.844Z,96.70
2017-10-31T21:08:56.523Z,96.90
2017-10-31T21:11:25.003Z,97.10
2017-10-31T21:13:53.471Z,97.00
2017-10-31T21:16:21.821Z,97.00
2017-10-31T21:18:49.484Z,97.10
2017-10-31T21:21:17.588Z,97.30
2017-10-31T21:23:45.220Z,97.40
2017-10-31T21:26:12.876Z,97.50
2017-10-31T21:28:40.651Z,97.70
2017-10-31T21:31:08.772Z,98.10
2017-10-31T21:33:36.510Z,98.70
2017-10-31T21:36:04.934Z,98.60
2017-10-31T21:38:32.591Z,99.00
2017-10-31T21:41:00.321Z,98.50
2017-10-31T21:43:28.761Z,98.50
2017-10-31T21:45:56.629Z,98.40
2017-10-31T21:48:24.264Z,98.60
2017-10-31T21:50:52.087Z,99.30
2017-10-31T21:53:20.865Z,99.40
2017-10-31T21:55:48.612Z,99.50
2017-10-31T21:58:16.460Z,99.70
2017-10-31T22:00:44.170Z,99.80
2017-10-31T22:03:12.223Z,99.90
2017-10-31T22:05:39.864Z,99.90
2017-10-31T22:08:07.522Z,99.90
2017-10-31T22:10:35.209Z,99.90
2017-10-31T22:13:02.920Z,99.90
2017-10-31T22:15:30.605Z,99.90
2017-10-31T22:17:58.265Z,99.90
2017-10-31T22:20:25.937Z,99.90
2017-10-31T22:22:54.621Z,99.90
2017-10-31T22:25:22.321Z,99.90
2017-10-31T22:27:50.050Z,99.90
2017-10-31T22:30:17.705Z,99.90
2017-10-31T22:32:46.266Z,99.90
2017-10-31T22:35:13.968Z,99.90
2017-10-31T22:37:41.672Z,99.90
2017-10-31T22:40:09.350Z,99.90
2017-10-31T22:42:37.756Z,99.90
2017-10-31T22:45:05.428Z,99.90
2017-10-31T22:47:34.056Z,99.90
2017-10-31T22:50:01.780Z,99.90
2017-10-31T22:52:29.475Z,99.90
2017-10-31T22:54:57.185Z,99.90
2017-10-31T22:57:25.569Z,99.90
2017-10-31T22:59:53.202Z,99.90
2017-10-31T23:02:21.665Z,99.90
2017-10-31T23:04:49.422Z,99.90
2017-10-31T23:07:17.108Z,99.90
2017-10-31T23:09:45.553Z,99.90
2017-10-31T23:12:13.193Z,99.90
2017-10-31T23:14:41.874Z,99.90
2017-10-31T23:17:12.653Z,99.90
2017-10-31T23:19:48.510Z,99.90
2017-10-31T23:22:21.193Z,99.90
2017-10-31T23:24:54.603Z,99.90
2017-10-31T23:27:23.636Z,99.90
2017-10-31T23:29:51.323Z,99.90
2017-10-31T23:32:18.981Z,99.90
2017-10-31T23:34:47.408Z,99.90
2017-10-31T23:37:15.083Z,99.90
2017-10-31T23:39:42.718Z,99.90
2017-10-31T23:42:10.393Z,99.90
2017-10-31T23:44:38.090Z,99.90
2017-10-31T23:47:05.787Z,99.90
2017-10-31T23:49:33.523Z,99.90
2017-10-31T23:52:01.160Z,99.90
2017-10-31T23:54:28.844Z,99.90
2017-10-31T23:56:57.568Z,99.90
2017-10-31T23:59:25.224Z,99.90
